Terminal Aerodrome Forecast
Issued by NWS

Home | Current Version | Previous Version | Text Only | Print | Product List | Glossary On
Versions: 1 2 3 4 5 6 7 8 9 10 11 12
000
FTUS46 KSGX 312300
TAFONT
TAF
KONT 312334Z 0100/0206 25012G18KT P6SM SCT200
     FM010300 VRB05KT P6SM FEW200
     FM012000 25011G18KT P6SM FEW200
     FM020400 VRB05KT P6SM FEW200=

USA.gov is the U.S. government's official web portal to all federal, state and local government web resources and services.